sensor_id;sensor_type;location;lat;lon;timestamp;P1;durP1;ratioP1;P2;durP2;ratioP2
11691;SDS011;33659;42.672;23.354;2023-06-26T00:01:06;16.27;;;12.63;;
11691;SDS011;33659;42.672;23.354;2023-06-26T00:03:33;17.95;;;13.57;;
11691;SDS011;33659;42.672;23.354;2023-06-26T00:05:59;14.82;;;12.57;;
11691;SDS011;33659;42.672;23.354;2023-06-26T00:08:26;14.10;;;12.43;;
11691;SDS011;33659;42.672;23.354;2023-06-26T00:10:53;17.40;;;13.18;;
11691;SDS011;33659;42.672;23.354;2023-06-26T00:13:22;16.90;;;12.57;;
11691;SDS011;33659;42.672;23.354;2023-06-26T00:15:49;18.42;;;13.38;;
11691;SDS011;33659;42.672;23.354;2023-06-26T00:18:16;15.77;;;11.55;;
11691;SDS011;33659;42.672;23.354;2023-06-26T00:20:43;16.17;;;11.75;;
11691;SDS011;33659;42.672;23.354;2023-06-26T00:23:10;15.15;;;12.13;;
11691;SDS011;33659;42.672;23.354;2023-06-26T00:25:38;16.38;;;11.82;;
11691;SDS011;33659;42.672;23.354;2023-06-26T00:28:05;15.13;;;11.88;;
11691;SDS011;33659;42.672;23.354;2023-06-26T00:30:33;14.75;;;11.50;;
11691;SDS011;33659;42.672;23.354;2023-06-26T00:33:00;14.40;;;11.43;;
11691;SDS011;33659;42.672;23.354;2023-06-26T00:35:27;16.00;;;10.25;;
11691;SDS011;33659;42.672;23.354;2023-06-26T00:37:53;15.00;;;10.98;;
11691;SDS011;33659;42.672;23.354;2023-06-26T00:40:20;12.85;;;10.63;;
11691;SDS011;33659;42.672;23.354;2023-06-26T00:42:47;15.25;;;10.55;;
11691;SDS011;33659;42.672;23.354;2023-06-26T00:45:14;14.75;;;10.48;;
11691;SDS011;33659;42.672;23.354;2023-06-26T00:47:42;15.50;;;9.73;;
11691;SDS011;33659;42.672;23.354;2023-06-26T00:50:09;16.58;;;9.80;;
11691;SDS011;33659;42.672;23.354;2023-06-26T00:52:36;12.90;;;10.23;;
11691;SDS011;33659;42.672;23.354;2023-06-26T00:55:03;12.48;;;9.85;;
11691;SDS011;33659;42.672;23.354;2023-06-26T00:57:30;12.77;;;9.52;;
11691;SDS011;33659;42.672;23.354;2023-06-26T00:59:57;12.30;;;9.77;;
11691;SDS011;33659;42.672;23.354;2023-06-26T01:02:25;13.35;;;9.25;;
11691;SDS011;33659;42.672;23.354;2023-06-26T01:04:59;11.82;;;9.50;;
11691;SDS011;33659;42.672;23.354;2023-06-26T01:07:28;12.35;;;9.85;;
11691;SDS011;33659;42.672;23.354;2023-06-26T01:10:01;14.48;;;9.88;;
11691;SDS011;33659;42.672;23.354;2023-06-26T01:12:29;10.77;;;8.98;;
11691;SDS011;33659;42.672;23.354;2023-06-26T01:14:56;15.07;;;10.07;;
11691;SDS011;33659;42.672;23.354;2023-06-26T01:17:23;11.32;;;9.68;;
11691;SDS011;33659;42.672;23.354;2023-06-26T01:19:50;11.57;;;8.85;;
11691;SDS011;33659;42.672;23.354;2023-06-26T01:22:23;13.18;;;9.50;;
11691;SDS011;33659;42.672;23.354;2023-06-26T01:24:56;11.95;;;9.80;;
11691;SDS011;33659;42.672;23.354;2023-06-26T01:27:36;11.15;;;8.50;;
11691;SDS011;33659;42.672;23.354;2023-06-26T01:30:04;11.43;;;9.13;;
11691;SDS011;33659;42.672;23.354;2023-06-26T01:32:33;11.60;;;9.20;;
11691;SDS011;33659;42.672;23.354;2023-06-26T01:35:01;9.82;;;8.80;;
11691;SDS011;33659;42.672;23.354;2023-06-26T01:37:28;9.90;;;8.90;;
11691;SDS011;33659;42.672;23.354;2023-06-26T01:39:55;9.93;;;8.82;;
11691;SDS011;33659;42.672;23.354;2023-06-26T01:42:21;12.93;;;9.63;;
11691;SDS011;33659;42.672;23.354;2023-06-26T01:44:50;11.45;;;9.07;;
11691;SDS011;33659;42.672;23.354;2023-06-26T01:47:19;12.82;;;9.40;;
11691;SDS011;33659;42.672;23.354;2023-06-26T01:49:51;11.07;;;9.35;;
11691;SDS011;33659;42.672;23.354;2023-06-26T01:52:25;14.30;;;9.45;;
11691;SDS011;33659;42.672;23.354;2023-06-26T01:54:56;11.63;;;9.45;;
11691;SDS011;33659;42.672;23.354;2023-06-26T01:57:29;13.55;;;9.52;;
11691;SDS011;33659;42.672;23.354;2023-06-26T01:59:58;12.90;;;9.80;;
11691;SDS011;33659;42.672;23.354;2023-06-26T02:02:27;13.07;;;9.60;;
11691;SDS011;33659;42.672;23.354;2023-06-26T02:04:55;11.40;;;8.93;;
11691;SDS011;33659;42.672;23.354;2023-06-26T02:07:21;11.98;;;9.05;;
11691;SDS011;33659;42.672;23.354;2023-06-26T02:09:48;12.98;;;10.05;;
11691;SDS011;33659;42.672;23.354;2023-06-26T02:12:15;11.13;;;9.35;;
11691;SDS011;33659;42.672;23.354;2023-06-26T02:14:41;11.80;;;9.40;;
11691;SDS011;33659;42.672;23.354;2023-06-26T02:17:10;11.27;;;9.65;;
11691;SDS011;33659;42.672;23.354;2023-06-26T02:19:36;11.75;;;9.85;;
11691;SDS011;33659;42.672;23.354;2023-06-26T02:22:12;12.90;;;9.32;;
11691;SDS011;33659;42.672;23.354;2023-06-26T02:24:39;10.93;;;9.13;;
11691;SDS011;33659;42.672;23.354;2023-06-26T02:27:06;12.15;;;9.38;;
11691;SDS011;33659;42.672;23.354;2023-06-26T02:29:33;13.93;;;10.25;;
11691;SDS011;33659;42.672;23.354;2023-06-26T02:31:59;12.80;;;10.15;;
11691;SDS011;33659;42.672;23.354;2023-06-26T02:34:28;12.93;;;10.07;;
11691;SDS011;33659;42.672;23.354;2023-06-26T02:36:55;10.95;;;9.85;;
11691;SDS011;33659;42.672;23.354;2023-06-26T02:39:23;11.57;;;9.90;;
11691;SDS011;33659;42.672;23.354;2023-06-26T02:41:50;12.48;;;10.10;;
11691;SDS011;33659;42.672;23.354;2023-06-26T02:44:17;13.50;;;10.55;;
11691;SDS011;33659;42.672;23.354;2023-06-26T02:46:43;14.82;;;10.18;;
11691;SDS011;33659;42.672;23.354;2023-06-26T02:49:10;15.27;;;11.32;;
11691;SDS011;33659;42.672;23.354;2023-06-26T02:51:38;14.25;;;11.45;;
11691;SDS011;33659;42.672;23.354;2023-06-26T02:54:05;17.35;;;12.15;;
11691;SDS011;33659;42.672;23.354;2023-06-26T02:56:32;15.77;;;12.32;;
11691;SDS011;33659;42.672;23.354;2023-06-26T02:58:58;16.52;;;11.88;;
11691;SDS011;33659;42.672;23.354;2023-06-26T03:01:25;13.25;;;11.40;;
11691;SDS011;33659;42.672;23.354;2023-06-26T03:03:52;13.73;;;11.32;;
11691;SDS011;33659;42.672;23.354;2023-06-26T03:06:19;16.15;;;12.38;;
11691;SDS011;33659;42.672;23.354;2023-06-26T03:08:47;15.52;;;12.75;;
11691;SDS011;33659;42.672;23.354;2023-06-26T03:11:14;15.60;;;12.27;;
11691;SDS011;33659;42.672;23.354;2023-06-26T03:13:41;14.55;;;12.45;;
11691;SDS011;33659;42.672;23.354;2023-06-26T03:16:08;14.93;;;12.68;;
11691;SDS011;33659;42.672;23.354;2023-06-26T03:18:35;13.93;;;12.02;;
11691;SDS011;33659;42.672;23.354;2023-06-26T03:21:02;14.15;;;12.20;;
11691;SDS011;33659;42.672;23.354;2023-06-26T03:23:29;15.02;;;12.43;;
11691;SDS011;33659;42.672;23.354;2023-06-26T03:25:57;15.65;;;12.35;;
11691;SDS011;33659;42.672;23.354;2023-06-26T03:28:24;16.00;;;13.43;;
11691;SDS011;33659;42.672;23.354;2023-06-26T03:30:50;14.30;;;12.25;;
11691;SDS011;33659;42.672;23.354;2023-06-26T03:33:17;15.82;;;12.82;;
11691;SDS011;33659;42.672;23.354;2023-06-26T03:35:44;16.55;;;12.68;;
11691;SDS011;33659;42.672;23.354;2023-06-26T03:38:11;15.85;;;12.68;;
11691;SDS011;33659;42.672;23.354;2023-06-26T03:40:38;14.93;;;13.18;;
11691;SDS011;33659;42.672;23.354;2023-06-26T03:43:06;21.27;;;13.32;;
11691;SDS011;33659;42.672;23.354;2023-06-26T03:45:33;13.48;;;11.70;;
11691;SDS011;33659;42.672;23.354;2023-06-26T03:48:00;17.20;;;14.10;;
11691;SDS011;33659;42.672;23.354;2023-06-26T03:50:26;25.27;;;13.77;;
11691;SDS011;33659;42.672;23.354;2023-06-26T03:52:53;18.17;;;13.93;;
11691;SDS011;33659;42.672;23.354;2023-06-26T03:55:21;15.65;;;12.98;;
11691;SDS011;33659;42.672;23.354;2023-06-26T03:57:49;18.50;;;13.55;;
11691;SDS011;33659;42.672;23.354;2023-06-26T04:00:17;18.60;;;14.18;;
11691;SDS011;33659;42.672;23.354;2023-06-26T04:02:44;17.98;;;13.27;;
11691;SDS011;33659;42.672;23.354;2023-06-26T04:05:11;16.27;;;13.23;;
11691;SDS011;33659;42.672;23.354;2023-06-26T04:07:38;15.48;;;13.27;;
11691;SDS011;33659;42.672;23.354;2023-06-26T04:10:19;15.35;;;12.65;;
11691;SDS011;33659;42.672;23.354;2023-06-26T04:12:46;15.77;;;13.32;;
11691;SDS011;33659;42.672;23.354;2023-06-26T04:15:13;22.52;;;13.38;;
11691;SDS011;33659;42.672;23.354;2023-06-26T04:17:41;13.98;;;12.45;;
11691;SDS011;33659;42.672;23.354;2023-06-26T04:20:08;14.50;;;12.82;;
11691;SDS011;33659;42.672;23.354;2023-06-26T04:22:35;14.02;;;12.57;;
11691;SDS011;33659;42.672;23.354;2023-06-26T04:25:02;16.58;;;12.48;;
11691;SDS011;33659;42.672;23.354;2023-06-26T04:27:29;15.95;;;12.25;;
11691;SDS011;33659;42.672;23.354;2023-06-26T04:29:56;16.17;;;12.07;;
11691;SDS011;33659;42.672;23.354;2023-06-26T04:32:23;14.65;;;12.35;;
11691;SDS011;33659;42.672;23.354;2023-06-26T04:34:51;14.35;;;12.00;;
11691;SDS011;33659;42.672;23.354;2023-06-26T04:37:18;12.77;;;11.40;;
11691;SDS011;33659;42.672;23.354;2023-06-26T04:39:45;16.20;;;11.60;;
11691;SDS011;33659;42.672;23.354;2023-06-26T04:42:11;15.85;;;12.13;;
11691;SDS011;33659;42.672;23.354;2023-06-26T04:44:38;15.55;;;12.90;;
11691;SDS011;33659;42.672;23.354;2023-06-26T04:47:06;15.23;;;11.88;;
11691;SDS011;33659;42.672;23.354;2023-06-26T04:49:33;14.35;;;12.38;;
11691;SDS011;33659;42.672;23.354;2023-06-26T04:52:01;13.65;;;11.88;;
11691;SDS011;33659;42.672;23.354;2023-06-26T04:54:28;17.60;;;12.90;;
11691;SDS011;33659;42.672;23.354;2023-06-26T04:56:54;13.48;;;11.77;;
11691;SDS011;33659;42.672;23.354;2023-06-26T04:59:21;20.13;;;12.98;;
11691;SDS011;33659;42.672;23.354;2023-06-26T05:01:49;15.80;;;11.63;;
11691;SDS011;33659;42.672;23.354;2023-06-26T05:04:16;14.23;;;12.15;;
11691;SDS011;33659;42.672;23.354;2023-06-26T05:06:43;14.95;;;11.52;;
11691;SDS011;33659;42.672;23.354;2023-06-26T05:09:11;16.45;;;12.32;;
11691;SDS011;33659;42.672;23.354;2023-06-26T05:11:39;14.10;;;11.63;;
11691;SDS011;33659;42.672;23.354;2023-06-26T05:14:05;17.27;;;12.32;;
11691;SDS011;33659;42.672;23.354;2023-06-26T05:16:34;13.60;;;11.48;;
11691;SDS011;33659;42.672;23.354;2023-06-26T05:19:01;15.68;;;11.65;;
11691;SDS011;33659;42.672;23.354;2023-06-26T05:21:28;15.07;;;12.75;;
11691;SDS011;33659;42.672;23.354;2023-06-26T05:23:55;12.75;;;11.18;;
11691;SDS011;33659;42.672;23.354;2023-06-26T05:26:25;12.93;;;11.57;;
11691;SDS011;33659;42.672;23.354;2023-06-26T05:28:52;15.05;;;11.45;;
11691;SDS011;33659;42.672;23.354;2023-06-26T05:31:20;13.35;;;11.55;;
11691;SDS011;33659;42.672;23.354;2023-06-26T05:33:47;16.85;;;11.63;;
11691;SDS011;33659;42.672;23.354;2023-06-26T05:36:14;13.70;;;11.90;;
11691;SDS011;33659;42.672;23.354;2023-06-26T05:38:42;15.05;;;11.90;;
11691;SDS011;33659;42.672;23.354;2023-06-26T05:41:10;14.05;;;11.23;;
11691;SDS011;33659;42.672;23.354;2023-06-26T05:43:38;12.57;;;11.18;;
11691;SDS011;33659;42.672;23.354;2023-06-26T05:46:05;13.30;;;10.27;;
11691;SDS011;33659;42.672;23.354;2023-06-26T05:48:32;13.40;;;11.38;;
11691;SDS011;33659;42.672;23.354;2023-06-26T05:50:59;12.35;;;10.95;;
11691;SDS011;33659;42.672;23.354;2023-06-26T05:53:26;15.85;;;11.20;;
11691;SDS011;33659;42.672;23.354;2023-06-26T05:55:55;14.52;;;10.85;;
11691;SDS011;33659;42.672;23.354;2023-06-26T05:58:23;13.63;;;11.00;;
11691;SDS011;33659;42.672;23.354;2023-06-26T06:00:53;15.57;;;11.45;;
11691;SDS011;33659;42.672;23.354;2023-06-26T06:03:20;12.38;;;11.00;;
11691;SDS011;33659;42.672;23.354;2023-06-26T06:05:47;14.27;;;10.77;;
11691;SDS011;33659;42.672;23.354;2023-06-26T06:08:14;12.10;;;10.55;;
11691;SDS011;33659;42.672;23.354;2023-06-26T06:10:40;12.68;;;10.40;;
11691;SDS011;33659;42.672;23.354;2023-06-26T06:13:07;11.02;;;9.93;;
11691;SDS011;33659;42.672;23.354;2023-06-26T06:15:34;11.40;;;10.20;;
11691;SDS011;33659;42.672;23.354;2023-06-26T06:18:02;12.88;;;10.40;;
11691;SDS011;33659;42.672;23.354;2023-06-26T06:20:30;13.00;;;10.98;;
11691;SDS011;33659;42.672;23.354;2023-06-26T06:22:56;13.15;;;10.27;;
11691;SDS011;33659;42.672;23.354;2023-06-26T06:25:23;13.93;;;10.20;;
11691;SDS011;33659;42.672;23.354;2023-06-26T06:27:50;12.23;;;9.98;;
11691;SDS011;33659;42.672;23.354;2023-06-26T06:30:17;11.77;;;9.90;;
11691;SDS011;33659;42.672;23.354;2023-06-26T06:32:43;12.98;;;9.75;;
11691;SDS011;33659;42.672;23.354;2023-06-26T06:35:12;12.80;;;9.73;;
11691;SDS011;33659;42.672;23.354;2023-06-26T06:37:39;12.57;;;10.45;;
11691;SDS011;33659;42.672;23.354;2023-06-26T06:40:06;12.43;;;10.68;;
11691;SDS011;33659;42.672;23.354;2023-06-26T06:42:33;11.50;;;10.05;;
11691;SDS011;33659;42.672;23.354;2023-06-26T06:45:01;13.30;;;10.25;;
11691;SDS011;33659;42.672;23.354;2023-06-26T06:47:28;11.80;;;10.55;;
11691;SDS011;33659;42.672;23.354;2023-06-26T06:49:55;10.85;;;9.45;;
11691;SDS011;33659;42.672;23.354;2023-06-26T06:52:23;12.23;;;9.40;;
11691;SDS011;33659;42.672;23.354;2023-06-26T06:54:53;11.48;;;9.52;;
11691;SDS011;33659;42.672;23.354;2023-06-26T06:57:20;13.13;;;9.38;;
11691;SDS011;33659;42.672;23.354;2023-06-26T06:59:47;11.52;;;8.25;;
11691;SDS011;33659;42.672;23.354;2023-06-26T07:02:14;10.25;;;8.70;;
11691;SDS011;33659;42.672;23.354;2023-06-26T07:04:42;13.63;;;9.02;;
11691;SDS011;33659;42.672;23.354;2023-06-26T07:07:08;10.32;;;8.60;;
11691;SDS011;33659;42.672;23.354;2023-06-26T07:09:37;9.43;;;8.43;;
11691;SDS011;33659;42.672;23.354;2023-06-26T07:12:04;9.35;;;8.20;;
11691;SDS011;33659;42.672;23.354;2023-06-26T07:14:31;11.23;;;8.27;;
11691;SDS011;33659;42.672;23.354;2023-06-26T07:16:58;11.95;;;8.48;;
11691;SDS011;33659;42.672;23.354;2023-06-26T07:19:25;9.68;;;7.65;;
11691;SDS011;33659;42.672;23.354;2023-06-26T07:21:52;9.02;;;7.13;;
11691;SDS011;33659;42.672;23.354;2023-06-26T07:24:18;9.10;;;6.90;;
11691;SDS011;33659;42.672;23.354;2023-06-26T07:26:46;9.88;;;7.50;;
11691;SDS011;33659;42.672;23.354;2023-06-26T07:29:13;7.45;;;6.50;;
11691;SDS011;33659;42.672;23.354;2023-06-26T07:31:40;7.45;;;6.32;;
11691;SDS011;33659;42.672;23.354;2023-06-26T07:34:06;9.68;;;6.15;;
11691;SDS011;33659;42.672;23.354;2023-06-26T07:36:33;7.90;;;6.32;;
11691;SDS011;33659;42.672;23.354;2023-06-26T07:39:00;8.82;;;7.00;;
11691;SDS011;33659;42.672;23.354;2023-06-26T07:41:27;10.20;;;7.07;;
11691;SDS011;33659;42.672;23.354;2023-06-26T07:43:56;7.55;;;6.65;;
11691;SDS011;33659;42.672;23.354;2023-06-26T07:46:24;8.18;;;6.65;;
11691;SDS011;33659;42.672;23.354;2023-06-26T07:48:51;7.20;;;6.47;;
11691;SDS011;33659;42.672;23.354;2023-06-26T07:51:17;7.72;;;5.82;;
11691;SDS011;33659;42.672;23.354;2023-06-26T07:53:44;6.18;;;5.47;;
11691;SDS011;33659;42.672;23.354;2023-06-26T07:56:11;6.05;;;5.40;;
11691;SDS011;33659;42.672;23.354;2023-06-26T07:58:38;5.55;;;5.05;;
11691;SDS011;33659;42.672;23.354;2023-06-26T08:01:06;5.75;;;5.10;;
11691;SDS011;33659;42.672;23.354;2023-06-26T08:03:33;7.47;;;5.40;;
11691;SDS011;33659;42.672;23.354;2023-06-26T08:05:59;6.95;;;5.40;;
11691;SDS011;33659;42.672;23.354;2023-06-26T08:08:26;7.65;;;5.82;;
11691;SDS011;33659;42.672;23.354;2023-06-26T08:10:53;8.13;;;6.60;;
11691;SDS011;33659;42.672;23.354;2023-06-26T08:13:20;7.30;;;6.30;;
11691;SDS011;33659;42.672;23.354;2023-06-26T08:15:46;6.82;;;5.55;;
11691;SDS011;33659;42.672;23.354;2023-06-26T08:18:14;5.78;;;4.93;;
11691;SDS011;33659;42.672;23.354;2023-06-26T08:20:42;7.95;;;5.60;;
11691;SDS011;33659;42.672;23.354;2023-06-26T08:23:08;5.35;;;4.85;;
11691;SDS011;33659;42.672;23.354;2023-06-26T08:25:35;6.10;;;5.32;;
11691;SDS011;33659;42.672;23.354;2023-06-26T08:28:02;5.00;;;4.50;;
11691;SDS011;33659;42.672;23.354;2023-06-26T08:30:29;6.32;;;4.82;;
11691;SDS011;33659;42.672;23.354;2023-06-26T08:32:56;6.55;;;5.45;;
11691;SDS011;33659;42.672;23.354;2023-06-26T08:35:24;5.32;;;4.75;;
11691;SDS011;33659;42.672;23.354;2023-06-26T08:37:51;6.35;;;5.00;;
11691;SDS011;33659;42.672;23.354;2023-06-26T08:40:19;5.13;;;4.57;;
11691;SDS011;33659;42.672;23.354;2023-06-26T08:42:47;6.03;;;4.95;;
11691;SDS011;33659;42.672;23.354;2023-06-26T08:45:17;6.28;;;5.28;;
11691;SDS011;33659;42.672;23.354;2023-06-26T08:47:44;6.60;;;4.95;;
11691;SDS011;33659;42.672;23.354;2023-06-26T08:50:14;5.32;;;4.88;;
11691;SDS011;33659;42.672;23.354;2023-06-26T08:52:46;5.20;;;4.70;;
11691;SDS011;33659;42.672;23.354;2023-06-26T08:55:19;9.40;;;4.70;;
11691;SDS011;33659;42.672;23.354;2023-06-26T08:57:49;6.43;;;5.00;;
11691;SDS011;33659;42.672;23.354;2023-06-26T09:00:17;5.55;;;5.05;;
11691;SDS011;33659;42.672;23.354;2023-06-26T09:02:44;5.97;;;4.68;;
11691;SDS011;33659;42.672;23.354;2023-06-26T09:05:11;5.53;;;4.30;;
11691;SDS011;33659;42.672;23.354;2023-06-26T09:07:38;7.20;;;6.13;;
11691;SDS011;33659;42.672;23.354;2023-06-26T09:10:07;5.93;;;5.32;;
11691;SDS011;33659;42.672;23.354;2023-06-26T09:12:34;8.65;;;4.93;;
11691;SDS011;33659;42.672;23.354;2023-06-26T09:15:02;5.22;;;4.40;;
11691;SDS011;33659;42.672;23.354;2023-06-26T09:17:32;8.90;;;4.97;;
11691;SDS011;33659;42.672;23.354;2023-06-26T09:20:04;5.13;;;4.63;;
11691;SDS011;33659;42.672;23.354;2023-06-26T09:22:33;5.95;;;4.25;;
11691;SDS011;33659;42.672;23.354;2023-06-26T09:25:03;6.15;;;4.72;;
11691;SDS011;33659;42.672;23.354;2023-06-26T09:27:33;5.28;;;4.53;;
11691;SDS011;33659;42.672;23.354;2023-06-26T09:30:01;7.43;;;4.72;;
11691;SDS011;33659;42.672;23.354;2023-06-26T09:32:28;6.00;;;4.78;;
11691;SDS011;33659;42.672;23.354;2023-06-26T09:34:55;5.25;;;4.68;;
11691;SDS011;33659;42.672;23.354;2023-06-26T09:37:22;6.03;;;5.00;;
11691;SDS011;33659;42.672;23.354;2023-06-26T09:39:50;4.93;;;4.43;;
11691;SDS011;33659;42.672;23.354;2023-06-26T09:42:17;6.10;;;4.07;;
11691;SDS011;33659;42.672;23.354;2023-06-26T09:44:46;7.15;;;4.82;;
11691;SDS011;33659;42.672;23.354;2023-06-26T09:47:15;4.82;;;3.63;;
11691;SDS011;33659;42.672;23.354;2023-06-26T09:49:43;5.45;;;4.35;;
11691;SDS011;33659;42.672;23.354;2023-06-26T09:52:10;4.88;;;4.35;;
11691;SDS011;33659;42.672;23.354;2023-06-26T09:54:41;5.03;;;4.53;;
11691;SDS011;33659;42.672;23.354;2023-06-26T09:57:10;6.90;;;5.07;;
11691;SDS011;33659;42.672;23.354;2023-06-26T09:59:38;6.78;;;5.28;;
11691;SDS011;33659;42.672;23.354;2023-06-26T10:02:07;6.63;;;4.63;;
11691;SDS011;33659;42.672;23.354;2023-06-26T10:04:34;5.15;;;4.60;;
11691;SDS011;33659;42.672;23.354;2023-06-26T10:07:02;5.13;;;4.30;;
11691;SDS011;33659;42.672;23.354;2023-06-26T10:09:32;7.40;;;4.90;;
11691;SDS011;33659;42.672;23.354;2023-06-26T10:12:01;7.18;;;4.40;;
11691;SDS011;33659;42.672;23.354;2023-06-26T10:14:32;4.95;;;4.32;;
11691;SDS011;33659;42.672;23.354;2023-06-26T10:17:01;4.93;;;4.30;;
11691;SDS011;33659;42.672;23.354;2023-06-26T10:19:33;4.57;;;3.72;;
11691;SDS011;33659;42.672;23.354;2023-06-26T10:22:04;4.63;;;4.18;;
11691;SDS011;33659;42.672;23.354;2023-06-26T10:24:31;9.15;;;4.80;;
11691;SDS011;33659;42.672;23.354;2023-06-26T10:27:02;7.25;;;4.38;;
11691;SDS011;33659;42.672;23.354;2023-06-26T10:29:30;5.05;;;4.55;;
11691;SDS011;33659;42.672;23.354;2023-06-26T10:31:59;7.28;;;5.28;;
11691;SDS011;33659;42.672;23.354;2023-06-26T10:34:29;6.93;;;4.95;;
11691;SDS011;33659;42.672;23.354;2023-06-26T10:37:00;6.85;;;4.60;;
11691;SDS011;33659;42.672;23.354;2023-06-26T10:39:32;5.25;;;4.38;;
11691;SDS011;33659;42.672;23.354;2023-06-26T10:42:13;4.88;;;4.38;;
11691;SDS011;33659;42.672;23.354;2023-06-26T10:44:41;8.50;;;4.32;;
11691;SDS011;33659;42.672;23.354;2023-06-26T10:47:08;5.68;;;4.20;;
11691;SDS011;33659;42.672;23.354;2023-06-26T10:49:36;5.88;;;4.15;;
11691;SDS011;33659;42.672;23.354;2023-06-26T10:52:06;6.07;;;3.83;;
11691;SDS011;33659;42.672;23.354;2023-06-26T10:54:34;4.70;;;3.85;;
11691;SDS011;33659;42.672;23.354;2023-06-26T10:57:01;6.25;;;4.20;;
11691;SDS011;33659;42.672;23.354;2023-06-26T10:59:29;4.93;;;3.90;;
11691;SDS011;33659;42.672;23.354;2023-06-26T11:01:58;6.80;;;4.55;;
11691;SDS011;33659;42.672;23.354;2023-06-26T11:07:16;6.75;;;4.80;;
11691;SDS011;33659;42.672;23.354;2023-06-26T11:09:53;7.63;;;4.57;;
11691;SDS011;33659;42.672;23.354;2023-06-26T11:12:36;6.40;;;4.50;;
11691;SDS011;33659;42.672;23.354;2023-06-26T11:15:07;6.03;;;4.18;;
11691;SDS011;33659;42.672;23.354;2023-06-26T11:17:35;6.30;;;4.63;;
11691;SDS011;33659;42.672;23.354;2023-06-26T11:20:03;4.82;;;4.25;;
11691;SDS011;33659;42.672;23.354;2023-06-26T11:22:34;4.78;;;4.30;;
11691;SDS011;33659;42.672;23.354;2023-06-26T11:25:02;5.70;;;4.65;;
11691;SDS011;33659;42.672;23.354;2023-06-26T11:27:31;6.57;;;4.93;;
11691;SDS011;33659;42.672;23.354;2023-06-26T11:29:58;5.28;;;4.40;;
11691;SDS011;33659;42.672;23.354;2023-06-26T11:32:26;5.47;;;4.40;;
11691;SDS011;33659;42.672;23.354;2023-06-26T11:34:54;9.07;;;4.47;;
11691;SDS011;33659;42.672;23.354;2023-06-26T11:37:21;7.47;;;5.00;;
11691;SDS011;33659;42.672;23.354;2023-06-26T11:39:49;6.47;;;4.72;;
11691;SDS011;33659;42.672;23.354;2023-06-26T11:42:16;6.00;;;4.68;;
11691;SDS011;33659;42.672;23.354;2023-06-26T11:44:43;6.43;;;4.55;;
11691;SDS011;33659;42.672;23.354;2023-06-26T11:47:13;5.60;;;5.00;;
11691;SDS011;33659;42.672;23.354;2023-06-26T11:49:42;5.78;;;4.40;;
11691;SDS011;33659;42.672;23.354;2023-06-26T11:52:09;5.75;;;4.30;;
11691;SDS011;33659;42.672;23.354;2023-06-26T11:54:36;4.55;;;4.00;;
11691;SDS011;33659;42.672;23.354;2023-06-26T11:57:05;7.47;;;4.30;;
11691;SDS011;33659;42.672;23.354;2023-06-26T11:59:33;4.72;;;4.20;;
11691;SDS011;33659;42.672;23.354;2023-06-26T12:02:04;6.20;;;4.65;;
11691;SDS011;33659;42.672;23.354;2023-06-26T12:04:31;8.00;;;4.40;;
11691;SDS011;33659;42.672;23.354;2023-06-26T12:06:59;7.35;;;4.15;;
11691;SDS011;33659;42.672;23.354;2023-06-26T12:09:29;5.25;;;4.20;;
11691;SDS011;33659;42.672;23.354;2023-06-26T12:11:55;5.07;;;4.57;;
11691;SDS011;33659;42.672;23.354;2023-06-26T12:14:26;5.18;;;4.45;;
11691;SDS011;33659;42.672;23.354;2023-06-26T12:16:53;5.85;;;4.75;;
11691;SDS011;33659;42.672;23.354;2023-06-26T12:19:23;4.88;;;4.40;;
11691;SDS011;33659;42.672;23.354;2023-06-26T12:21:52;4.93;;;4.43;;
11691;SDS011;33659;42.672;23.354;2023-06-26T12:24:21;5.85;;;4.35;;
11691;SDS011;33659;42.672;23.354;2023-06-26T12:26:49;6.78;;;4.47;;
11691;SDS011;33659;42.672;23.354;2023-06-26T12:29:18;4.68;;;4.03;;
11691;SDS011;33659;42.672;23.354;2023-06-26T12:31:48;9.10;;;5.20;;
11691;SDS011;33659;42.672;23.354;2023-06-26T12:34:17;8.30;;;4.40;;
11691;SDS011;33659;42.672;23.354;2023-06-26T12:36:45;5.38;;;4.30;;
11691;SDS011;33659;42.672;23.354;2023-06-26T12:39:15;5.40;;;3.97;;
11691;SDS011;33659;42.672;23.354;2023-06-26T12:41:46;5.95;;;4.68;;
11691;SDS011;33659;42.672;23.354;2023-06-26T12:44:20;6.15;;;4.40;;
11691;SDS011;33659;42.672;23.354;2023-06-26T12:46:49;5.05;;;4.22;;
11691;SDS011;33659;42.672;23.354;2023-06-26T12:49:16;5.38;;;4.80;;
11691;SDS011;33659;42.672;23.354;2023-06-26T12:51:44;5.30;;;4.60;;
11691;SDS011;33659;42.672;23.354;2023-06-26T12:54:11;6.05;;;4.28;;
11691;SDS011;33659;42.672;23.354;2023-06-26T12:56:38;5.53;;;4.70;;
11691;SDS011;33659;42.672;23.354;2023-06-26T12:59:05;5.60;;;4.80;;
11691;SDS011;33659;42.672;23.354;2023-06-26T13:01:31;5.82;;;4.45;;
11691;SDS011;33659;42.672;23.354;2023-06-26T13:04:00;5.78;;;5.15;;
11691;SDS011;33659;42.672;23.354;2023-06-26T13:06:29;6.93;;;4.30;;
11691;SDS011;33659;42.672;23.354;2023-06-26T13:08:55;6.15;;;4.35;;
11691;SDS011;33659;42.672;23.354;2023-06-26T13:11:22;5.22;;;4.50;;
11691;SDS011;33659;42.672;23.354;2023-06-26T13:13:49;8.07;;;4.30;;
11691;SDS011;33659;42.672;23.354;2023-06-26T13:16:15;7.53;;;4.55;;
11691;SDS011;33659;42.672;23.354;2023-06-26T13:18:43;5.90;;;4.07;;
11691;SDS011;33659;42.672;23.354;2023-06-26T13:21:12;7.10;;;4.50;;
11691;SDS011;33659;42.672;23.354;2023-06-26T13:23:39;5.22;;;4.72;;
11691;SDS011;33659;42.672;23.354;2023-06-26T13:26:05;5.30;;;4.72;;
11691;SDS011;33659;42.672;23.354;2023-06-26T13:28:32;5.20;;;4.70;;
11691;SDS011;33659;42.672;23.354;2023-06-26T13:30:59;6.70;;;4.13;;
11691;SDS011;33659;42.672;23.354;2023-06-26T13:33:26;4.68;;;4.18;;
11691;SDS011;33659;42.672;23.354;2023-06-26T13:35:53;4.10;;;3.70;;
11691;SDS011;33659;42.672;23.354;2023-06-26T13:38:21;5.55;;;4.20;;
11691;SDS011;33659;42.672;23.354;2023-06-26T13:40:50;5.47;;;4.13;;
11691;SDS011;33659;42.672;23.354;2023-06-26T13:43:17;9.52;;;5.00;;
11691;SDS011;33659;42.672;23.354;2023-06-26T13:45:44;5.03;;;4.53;;
11691;SDS011;33659;42.672;23.354;2023-06-26T13:48:11;4.68;;;4.28;;
11691;SDS011;33659;42.672;23.354;2023-06-26T13:50:38;4.75;;;4.25;;
11691;SDS011;33659;42.672;23.354;2023-06-26T13:53:04;5.35;;;4.30;;
11691;SDS011;33659;42.672;23.354;2023-06-26T13:55:33;5.05;;;4.00;;
11691;SDS011;33659;42.672;23.354;2023-06-26T13:58:03;5.70;;;4.30;;
11691;SDS011;33659;42.672;23.354;2023-06-26T14:00:31;5.22;;;4.55;;
11691;SDS011;33659;42.672;23.354;2023-06-26T14:02:58;5.10;;;4.60;;
11691;SDS011;33659;42.672;23.354;2023-06-26T14:05:25;4.85;;;4.35;;
11691;SDS011;33659;42.672;23.354;2023-06-26T14:07:52;6.55;;;4.55;;
11691;SDS011;33659;42.672;23.354;2023-06-26T14:10:19;9.57;;;4.18;;
11691;SDS011;33659;42.672;23.354;2023-06-26T14:12:47;6.20;;;4.88;;
11691;SDS011;33659;42.672;23.354;2023-06-26T14:15:14;7.43;;;4.05;;
11691;SDS011;33659;42.672;23.354;2023-06-26T14:17:41;4.97;;;4.45;;
11691;SDS011;33659;42.672;23.354;2023-06-26T14:20:08;5.32;;;4.72;;
11691;SDS011;33659;42.672;23.354;2023-06-26T14:22:38;5.40;;;4.88;;
11691;SDS011;33659;42.672;23.354;2023-06-26T14:25:05;6.40;;;4.78;;
11691;SDS011;33659;42.672;23.354;2023-06-26T14:27:32;5.28;;;3.83;;
11691;SDS011;33659;42.672;23.354;2023-06-26T14:30:01;6.93;;;4.05;;